createdAt,value
2018-09-10T00:01:49.060Z,3.67
2018-09-10T00:04:23.592Z,4.40
2018-09-10T00:06:59.335Z,3.30
2018-09-10T00:09:34.994Z,3.70
2018-09-10T00:12:11.098Z,4.70
2018-09-10T00:14:46.731Z,4.23
2018-09-10T00:17:24.934Z,3.50
2018-09-10T00:19:59.338Z,3.50
2018-09-10T00:22:34.079Z,3.57
2018-09-10T00:25:10.172Z,4.23
2018-09-10T00:27:45.763Z,3.87
2018-09-10T00:30:21.432Z,3.77
2018-09-10T00:32:57.123Z,3.77
2018-09-10T00:35:32.751Z,3.50
2018-09-10T00:38:07.378Z,3.93
2018-09-10T00:40:41.744Z,3.40
2018-09-10T00:43:17.083Z,4.37
2018-09-10T00:45:51.828Z,4.00
2018-09-10T00:48:26.363Z,3.87
2018-09-10T00:51:00.655Z,4.17
2018-09-10T00:53:35.203Z,4.03
2018-09-10T00:56:09.670Z,4.57
2018-09-10T00:58:44.251Z,4.17
2018-09-10T01:01:18.602Z,4.07
2018-09-10T01:03:54.149Z,4.40
2018-09-10T01:06:30.084Z,3.70
2018-09-10T01:09:07.496Z,5.17
2018-09-10T01:11:43.111Z,3.90
2018-09-10T01:14:19.408Z,4.20
2018-09-10T01:16:53.808Z,4.00
2018-09-10T01:19:29.535Z,4.60
2018-09-10T01:22:04.175Z,4.67
2018-09-10T01:24:39.926Z,4.43
2018-09-10T01:27:15.535Z,4.40
2018-09-10T01:29:50.048Z,3.80
2018-09-10T01:32:25.665Z,4.00
2018-09-10T01:35:06.319Z,4.60
2018-09-10T01:37:42.272Z,4.37
2018-09-10T01:40:24.559Z,4.17
2018-09-10T01:42:58.928Z,4.10
2018-09-10T01:45:33.588Z,4.13
2018-09-10T01:48:07.972Z,3.70
2018-09-10T01:50:42.843Z,4.27
2018-09-10T01:53:17.156Z,3.53
2018-09-10T01:55:51.644Z,3.23
2018-09-10T01:58:25.899Z,3.70
2018-09-10T02:01:01.895Z,4.37
2018-09-10T02:03:36.323Z,3.40
2018-09-10T02:06:13.686Z,4.00
2018-09-10T02:08:49.357Z,4.13
2018-09-10T02:11:24.766Z,3.70
2018-09-10T02:14:00.496Z,4.40
2018-09-10T02:16:36.451Z,4.03
2018-09-10T02:19:11.956Z,3.50
2018-09-10T02:21:46.609Z,3.73
2018-09-10T02:24:21.105Z,4.10
2018-09-10T02:26:56.863Z,3.90
2018-09-10T02:29:31.190Z,4.13
2018-09-10T02:32:06.727Z,4.40
2018-09-10T02:34:41.172Z,4.23
2018-09-10T02:37:15.663Z,3.53
2018-09-10T02:39:51.259Z,3.70
2018-09-10T02:42:26.731Z,3.50
2018-09-10T02:45:01.195Z,4.20
2018-09-10T02:47:35.699Z,3.53
2018-09-10T02:50:10.431Z,4.13
2018-09-10T02:52:44.684Z,4.50
2018-09-10T02:55:19.716Z,4.60
2018-09-10T02:57:55.379Z,3.83
2018-09-10T03:00:29.881Z,5.00
2018-09-10T03:03:04.329Z,4.33
2018-09-10T03:05:39.328Z,5.27
2018-09-10T03:08:15.591Z,5.53
2018-09-10T03:10:51.769Z,5.50
2018-09-10T03:13:28.320Z,4.30
2018-09-10T03:16:04.587Z,5.10
2018-09-10T03:18:40.978Z,4.00
2018-09-10T03:21:15.442Z,4.13
2018-09-10T03:23:50.013Z,4.10
2018-09-10T03:26:26.180Z,4.27
2018-09-10T03:29:01.037Z,3.97
2018-09-10T03:31:37.290Z,4.50
2018-09-10T03:34:11.952Z,4.27
2018-09-10T03:36:48.151Z,4.63
2018-09-10T03:39:22.858Z,4.80
2018-09-10T03:41:57.155Z,5.00
2018-09-10T03:44:33.435Z,4.03
2018-09-10T03:47:07.756Z,4.70
2018-09-10T03:49:42.218Z,5.10
2018-09-10T03:52:18.784Z,5.13
2018-09-10T03:54:53.599Z,5.70
2018-09-10T03:57:28.003Z,4.47
2018-09-10T04:00:04.186Z,4.67
2018-09-10T04:02:38.583Z,3.90
2018-09-10T04:05:13.220Z,4.73
2018-09-10T04:07:49.359Z,4.30
2018-09-10T04:10:26.059Z,4.50
2018-09-10T04:13:00.412Z,5.20
2018-09-10T04:15:36.147Z,5.13
2018-09-10T04:18:11.703Z,4.60
2018-09-10T04:20:46.160Z,4.47
2018-09-10T04:23:20.569Z,4.83
2018-09-10T04:25:58.844Z,3.90
2018-09-10T04:28:34.343Z,4.10
2018-09-10T04:31:10.040Z,4.37
2018-09-10T04:33:45.379Z,4.70
2018-09-10T04:36:19.812Z,4.90
2018-09-10T04:38:54.218Z,5.50
2018-09-10T04:41:35.843Z,6.00
2018-09-10T04:44:10.268Z,5.17
2018-09-10T04:46:44.739Z,4.93
2018-09-10T04:49:20.665Z,4.80
2018-09-10T04:51:55.291Z,5.40
2018-09-10T04:54:29.696Z,5.00
2018-09-10T04:57:04.492Z,4.80
2018-09-10T04:59:38.807Z,4.90
2018-09-10T05:02:13.252Z,4.50
2018-09-10T05:04:47.965Z,5.10
2018-09-10T05:07:25.454Z,5.47
2018-09-10T05:10:05.497Z,4.80
2018-09-10T05:12:40.128Z,5.13
2018-09-10T05:15:15.624Z,5.00
2018-09-10T05:17:51.980Z,5.60
2018-09-10T05:20:27.475Z,4.43
2018-09-10T05:23:02.003Z,4.87
2018-09-10T05:25:45.044Z,5.23
2018-09-10T05:28:20.824Z,6.43
2018-09-10T05:30:56.424Z,5.60
2018-09-10T05:33:30.757Z,4.77
2018-09-10T05:36:05.101Z,4.80
2018-09-10T05:38:39.503Z,4.63
2018-09-10T05:44:01.090Z,5.40
2018-09-10T05:46:35.786Z,4.93
2018-09-10T05:49:10.113Z,5.63
2018-09-10T05:51:45.423Z,5.53
2018-09-10T05:54:19.774Z,5.60
2018-09-10T05:56:56.050Z,5.43
2018-09-10T05:59:31.672Z,5.00
2018-09-10T06:02:07.325Z,5.30
2018-09-10T06:04:41.739Z,4.73
2018-09-10T06:07:17.251Z,4.97
2018-09-10T06:09:51.691Z,5.50
2018-09-10T06:12:27.170Z,5.93
2018-09-10T06:15:02.804Z,5.20
2018-09-10T06:17:38.439Z,4.90
2018-09-10T06:20:12.759Z,4.60
2018-09-10T06:22:48.207Z,5.73
2018-09-10T06:25:22.473Z,5.93
2018-09-10T06:27:58.204Z,5.60
2018-09-10T06:30:34.261Z,4.97
2018-09-10T06:33:10.116Z,5.30
2018-09-10T06:35:44.640Z,5.40
2018-09-10T06:38:19.101Z,4.77
2018-09-10T06:40:53.443Z,5.40
2018-09-10T06:43:29.240Z,6.03
2018-09-10T06:46:03.658Z,6.40
2018-09-10T06:48:38.087Z,5.10
2018-09-10T06:51:12.572Z,5.43
2018-09-10T06:53:47.799Z,5.70
2018-09-10T06:56:23.602Z,5.77
2018-09-10T06:58:58.096Z,5.90
2018-09-10T07:01:32.384Z,5.60
2018-09-10T07:04:07.290Z,5.20
2018-09-10T07:06:43.243Z,5.77
2018-09-10T07:09:17.799Z,5.37
2018-09-10T07:11:53.608Z,5.93
2018-09-10T07:14:29.464Z,5.90
2018-09-10T07:17:03.917Z,6.40
2018-09-10T07:19:39.329Z,4.73
2018-09-10T07:22:15.323Z,4.60
2018-09-10T07:24:49.907Z,4.83
2018-09-10T07:27:25.448Z,4.43
2018-09-10T07:32:47.840Z,4.70
2018-09-10T07:35:22.276Z,4.30
2018-09-10T07:37:56.672Z,5.03
2018-09-10T07:40:32.307Z,3.63
2018-09-10T07:43:07.692Z,3.83
2018-09-10T07:45:42.071Z,3.83
2018-09-10T07:48:16.520Z,3.80
2018-09-10T07:50:50.857Z,3.43
2018-09-10T07:53:25.295Z,3.97
2018-09-10T07:55:59.779Z,3.97
2018-09-10T07:58:34.486Z,3.03
2018-09-10T08:01:08.906Z,3.60
2018-09-10T08:03:43.231Z,3.33
2018-09-10T08:06:18.659Z,4.23
2018-09-10T08:09:01.609Z,3.63
2018-09-10T08:11:37.284Z,3.30
2018-09-10T08:14:14.738Z,3.30
2018-09-10T08:16:49.087Z,2.90
2018-09-10T08:19:24.603Z,2.77
2018-09-10T08:22:00.660Z,3.00
2018-09-10T08:24:36.174Z,3.00
2018-09-10T08:27:11.769Z,2.97
2018-09-10T08:29:46.378Z,2.77
2018-09-10T08:32:21.837Z,3.03
2018-09-10T08:34:56.297Z,2.80
2018-09-10T08:37:30.617Z,2.47
2018-09-10T08:40:06.326Z,2.30
2018-09-10T08:42:42.397Z,2.70
2018-09-10T08:45:17.411Z,2.90
2018-09-10T08:47:53.499Z,2.90
2018-09-10T08:50:28.043Z,2.70
2018-09-10T08:53:02.399Z,2.57
2018-09-10T08:55:36.974Z,2.63
2018-09-10T08:58:11.309Z,2.63
2018-09-10T09:00:45.807Z,2.67
2018-09-10T09:03:20.213Z,2.10
2018-09-10T09:05:55.978Z,2.63
2018-09-10T09:08:31.716Z,2.67
2018-09-10T09:11:08.271Z,2.33
2018-09-10T09:13:44.239Z,2.47
2018-09-10T09:16:20.303Z,2.80
2018-09-10T09:18:55.746Z,2.93
2018-09-10T09:21:31.413Z,2.97
2018-09-10T09:24:05.821Z,2.40
2018-09-10T09:26:41.466Z,3.13
2018-09-10T09:29:15.906Z,2.40
2018-09-10T09:31:51.551Z,3.33
2018-09-10T09:34:31.283Z,2.70
2018-09-10T09:37:11.213Z,2.80
2018-09-10T09:39:50.960Z,2.90
2018-09-10T09:42:30.855Z,3.47
2018-09-10T09:45:12.783Z,3.67
2018-09-10T09:47:47.068Z,3.50
2018-09-10T09:50:21.434Z,2.80
2018-09-10T09:52:56.075Z,2.60
2018-09-10T09:55:31.895Z,2.73
2018-09-10T09:58:06.263Z,2.37
2018-09-10T10:00:49.950Z,2.70
2018-09-10T10:03:29.747Z,2.80
2018-09-10T10:06:13.503Z,2.43
2018-09-10T10:08:47.760Z,2.73
2018-09-10T10:11:23.358Z,2.60
2018-09-10T10:13:58.857Z,2.87
2018-09-10T10:16:34.327Z,3.17
2018-09-10T10:19:09.695Z,1.90
2018-09-10T10:21:45.750Z,2.23
2018-09-10T10:24:20.020Z,2.73
2018-09-10T10:26:56.799Z,2.70
2018-09-10T10:29:32.387Z,2.70
2018-09-10T10:32:08.043Z,2.23
2018-09-10T10:34:42.402Z,2.27
2018-09-10T10:37:17.001Z,1.93
2018-09-10T10:39:51.319Z,1.77
2018-09-10T10:42:25.746Z,2.30
2018-09-10T10:45:01.434Z,1.90
2018-09-10T10:47:37.080Z,1.57
2018-09-10T10:50:12.911Z,1.63
2018-09-10T10:52:47.343Z,1.53
2018-09-10T10:55:21.811Z,1.73
2018-09-10T10:57:56.262Z,1.97
2018-09-10T11:00:31.916Z,2.00
2018-09-10T11:03:07.967Z,1.93
2018-09-10T11:05:42.272Z,2.10
2018-09-10T11:08:17.704Z,1.83
2018-09-10T11:10:53.290Z,2.00
2018-09-10T11:13:29.195Z,2.03
2018-09-10T11:16:04.778Z,1.93
2018-09-10T11:18:40.435Z,2.10
2018-09-10T11:21:15.581Z,1.80
2018-09-10T11:23:51.191Z,1.87
2018-09-10T11:26:27.036Z,2.30
2018-09-10T11:29:01.402Z,1.80
2018-09-10T11:31:37.043Z,2.00
2018-09-10T11:34:11.384Z,2.03
2018-09-10T11:36:47.125Z,1.60
2018-09-10T11:39:21.585Z,2.00
2018-09-10T11:41:56.156Z,2.10
2018-09-10T11:44:31.919Z,2.10
2018-09-10T11:47:06.394Z,2.13
2018-09-10T11:49:40.883Z,3.30
2018-09-10T11:52:15.406Z,1.40
2018-09-10T11:54:49.671Z,1.60
2018-09-10T11:57:24.088Z,1.90
2018-09-10T11:59:58.371Z,1.40
2018-09-10T12:02:34.284Z,1.47
2018-09-10T12:05:08.671Z,1.50
2018-09-10T12:07:44.058Z,1.40
2018-09-10T12:10:19.599Z,1.70
2018-09-10T12:12:53.999Z,1.60
2018-09-10T12:15:29.891Z,1.80
2018-09-10T12:18:05.547Z,2.00
2018-09-10T12:20:39.815Z,1.90
2018-09-10T12:23:15.267Z,1.70
2018-09-10T12:25:49.805Z,1.70
2018-09-10T12:28:25.278Z,1.93
2018-09-10T12:31:01.249Z,1.97
2018-09-10T12:33:37.083Z,2.20
2018-09-10T12:36:11.986Z,1.30
2018-09-10T12:38:46.073Z,1.77
2018-09-10T12:41:20.175Z,1.63
2018-09-10T12:43:55.879Z,1.80
2018-09-10T12:46:29.928Z,1.50
2018-09-10T12:49:04.115Z,1.60
2018-09-10T12:51:38.259Z,1.83
2018-09-10T12:54:12.473Z,2.00
2018-09-10T12:56:46.752Z,2.00
2018-09-10T12:59:21.113Z,1.57
2018-09-10T13:01:55.174Z,1.50
2018-09-10T13:04:30.115Z,1.87
2018-09-10T13:07:05.628Z,1.60
2018-09-10T13:09:39.879Z,1.63
2018-09-10T13:12:15.558Z,1.90
2018-09-10T13:14:51.420Z,1.90
2018-09-10T13:24:32.893Z,1.97
2018-09-10T13:27:10.400Z,1.90
2018-09-10T13:29:45.365Z,1.83
2018-09-10T13:32:20.993Z,2.27
2018-09-10T13:34:55.559Z,1.60
2018-09-10T13:37:29.775Z,1.77
2018-09-10T13:40:04.208Z,1.57
2018-09-10T13:42:38.342Z,1.80
2018-09-10T13:45:12.792Z,1.80
2018-09-10T13:47:47.078Z,1.47
2018-09-10T13:50:21.578Z,1.57
2018-09-10T13:52:55.930Z,1.40
2018-09-10T13:56:54.746Z,1.63
2018-09-10T13:59:29.404Z,1.80
2018-09-10T14:02:03.714Z,2.23
2018-09-10T14:04:39.379Z,2.00
2018-09-10T14:07:14.935Z,2.30
2018-09-10T14:09:50.582Z,1.87
2018-09-10T14:12:26.986Z,2.47
2018-09-10T14:15:02.579Z,2.60
2018-09-10T14:17:51.884Z,2.27
2018-09-10T14:20:26.635Z,1.90
2018-09-10T14:23:01.964Z,2.30
2018-09-10T14:25:36.238Z,2.10
2018-09-10T14:28:11.810Z,1.80
2018-09-10T14:30:47.263Z,2.10
2018-09-10T14:33:22.466Z,2.10
2018-09-10T14:35:56.918Z,2.07
2018-09-10T14:38:30.999Z,2.00
2018-09-10T14:41:05.209Z,1.87
2018-09-10T14:43:39.395Z,2.27
2018-09-10T14:46:13.631Z,2.00
2018-09-10T14:48:48.829Z,1.93
2018-09-10T14:51:22.999Z,2.50
2018-09-10T14:53:57.262Z,1.90
2018-09-10T14:56:31.827Z,1.97
2018-09-10T14:59:06.348Z,2.37
2018-09-10T15:01:43.795Z,2.37
2018-09-10T15:04:18.171Z,2.00
2018-09-10T15:06:54.087Z,2.10
2018-09-10T15:09:28.402Z,2.30
2018-09-10T15:12:03.824Z,2.50
2018-09-10T15:14:39.382Z,2.07
2018-09-10T15:17:13.582Z,2.13
2018-09-10T15:19:49.047Z,3.20
2018-09-10T15:25:05.098Z,3.07
2018-09-10T15:27:40.716Z,1.90
2018-09-10T15:30:16.656Z,2.43
2018-09-10T15:32:51.066Z,2.10
2018-09-10T15:37:49.915Z,2.57
2018-09-10T15:40:24.154Z,2.20
2018-09-10T15:42:58.900Z,2.33
2018-09-10T15:45:33.191Z,2.43
2018-09-10T15:48:07.572Z,2.40
2018-09-10T15:50:42.124Z,2.10
2018-09-10T15:53:18.088Z,2.37
2018-09-10T15:55:52.203Z,2.20
2018-09-10T15:58:28.162Z,2.63
2018-09-10T16:01:02.880Z,2.07
2018-09-10T16:03:37.711Z,2.00
2018-09-10T16:06:15.864Z,2.00
2018-09-10T16:08:50.386Z,2.10
2018-09-10T16:11:25.816Z,3.60
2018-09-10T16:14:03.833Z,1.80
2018-09-10T16:16:39.257Z,2.10
2018-09-10T16:19:14.624Z,2.67
2018-09-10T16:21:50.083Z,2.00
2018-09-10T16:24:24.709Z,2.20
2018-09-10T16:26:59.879Z,2.33
2018-09-10T16:29:42.708Z,2.20
2018-09-10T16:32:18.191Z,2.13
2018-09-10T16:34:53.462Z,2.40
2018-09-10T16:37:27.777Z,2.10
2018-09-10T16:40:02.074Z,2.50
2018-09-10T16:42:37.639Z,2.10
2018-09-10T16:45:11.976Z,2.30
2018-09-10T16:47:46.292Z,2.27
2018-09-10T16:50:20.526Z,2.87
2018-09-10T16:52:54.737Z,2.17
2018-09-10T16:55:29.287Z,2.10
2018-09-10T16:58:03.417Z,2.00
2018-09-10T17:00:37.898Z,2.37
2018-09-10T17:03:15.506Z,2.83
2018-09-10T17:05:49.611Z,1.97
2018-09-10T17:08:25.201Z,1.90
2018-09-10T17:11:00.343Z,2.00
2018-09-10T17:13:36.059Z,2.53
2018-09-10T17:16:11.506Z,2.80
2018-09-10T17:18:47.348Z,2.50
2018-09-10T17:21:28.408Z,2.40
2018-09-10T17:24:04.383Z,2.20
2018-09-10T17:26:39.969Z,2.60
2018-09-10T17:29:14.426Z,2.60
2018-09-10T17:31:50.307Z,2.10
2018-09-10T17:34:33.940Z,2.63
2018-09-10T17:37:08.816Z,2.70
2018-09-10T17:39:43.347Z,2.97
2018-09-10T17:42:17.719Z,2.10
2018-09-10T17:44:52.053Z,3.10
2018-09-10T17:47:26.058Z,2.67
2018-09-10T17:50:00.570Z,7.47
2018-09-10T17:52:36.292Z,11.57
2018-09-10T17:55:10.893Z,4.97
2018-09-10T17:57:47.063Z,3.40
2018-09-10T18:00:24.656Z,2.73
2018-09-10T18:02:59.052Z,3.17
2018-09-10T18:05:34.275Z,4.10
2018-09-10T18:08:09.792Z,3.33
2018-09-10T18:10:45.611Z,2.90
2018-09-10T18:13:26.423Z,3.23
2018-09-10T18:16:02.403Z,3.23
2018-09-10T18:18:41.349Z,2.40
2018-09-10T18:21:16.058Z,2.77
2018-09-10T18:23:52.016Z,3.17
2018-09-10T18:26:29.100Z,4.03
2018-09-10T18:29:03.373Z,3.17
2018-09-10T18:31:39.129Z,2.50
2018-09-10T18:34:13.605Z,3.57
2018-09-10T18:36:48.278Z,2.73
2018-09-10T18:39:22.771Z,2.93
2018-09-10T18:41:57.312Z,2.77
2018-09-10T18:44:31.656Z,3.27
2018-09-10T18:47:06.863Z,3.40
2018-09-10T18:49:41.458Z,3.40
2018-09-10T18:52:16.579Z,2.97
2018-09-10T18:54:50.880Z,3.00
2018-09-10T18:57:26.862Z,2.90
2018-09-10T19:00:01.185Z,3.50
2018-09-10T19:02:40.386Z,3.10
2018-09-10T19:05:14.758Z,3.37
2018-09-10T19:07:50.509Z,3.47
2018-09-10T19:10:27.695Z,2.90
2018-09-10T19:13:06.827Z,3.13
2018-09-10T19:15:43.386Z,3.73
2018-09-10T19:18:19.481Z,3.20
2018-09-10T19:20:54.057Z,3.50
2018-09-10T19:23:29.946Z,3.70
2018-09-10T19:28:49.971Z,8.63
2018-09-10T19:31:25.673Z,5.60
2018-09-10T19:33:59.853Z,5.63
2018-09-10T19:36:35.310Z,4.20
2018-09-10T19:39:10.611Z,4.10
2018-09-10T19:41:45.146Z,3.83
2018-09-10T19:44:19.591Z,3.67
2018-09-10T19:46:54.628Z,3.67
2018-09-10T19:49:30.471Z,3.77
2018-09-10T19:52:04.851Z,4.00
2018-09-10T19:54:39.314Z,4.50
2018-09-10T19:57:15.007Z,3.73
2018-09-10T19:59:49.516Z,4.67
2018-09-10T20:02:26.107Z,3.70
2018-09-10T20:05:02.363Z,4.20
2018-09-10T20:07:38.037Z,5.43
2018-09-10T20:10:14.592Z,5.47
2018-09-10T20:12:58.851Z,4.40
2018-09-10T20:15:35.128Z,3.80
2018-09-10T20:18:11.373Z,4.10
2018-09-10T20:20:45.827Z,3.90
2018-09-10T20:23:21.590Z,4.10
2018-09-10T20:25:55.819Z,4.80
2018-09-10T20:28:31.138Z,3.80
2018-09-10T20:31:06.847Z,3.80
2018-09-10T20:33:46.623Z,4.17
2018-09-10T20:36:20.877Z,3.70
2018-09-10T20:38:55.116Z,4.20
2018-09-10T20:41:29.084Z,4.17
2018-09-10T20:44:03.355Z,4.50
2018-09-10T20:46:38.224Z,3.97
2018-09-10T20:50:38.983Z,3.70
2018-09-10T20:53:15.078Z,4.27
2018-09-10T20:55:49.584Z,4.30
2018-09-10T20:58:25.326Z,3.87
2018-09-10T21:01:07.347Z,3.97
2018-09-10T21:03:41.840Z,4.20
2018-09-10T21:06:22.884Z,4.30
2018-09-10T21:08:57.579Z,3.80
2018-09-10T21:11:33.568Z,3.70
2018-09-10T21:14:09.263Z,4.33
2018-09-10T21:16:43.670Z,4.00
2018-09-10T21:19:20.107Z,3.67
2018-09-10T21:21:56.585Z,4.40
2018-09-10T21:24:31.158Z,6.83
2018-09-10T21:27:07.055Z,7.33
2018-09-10T21:29:41.544Z,8.67
2018-09-10T21:32:17.420Z,7.13
2018-09-10T21:34:51.929Z,4.57
2018-09-10T21:37:26.283Z,4.40
2018-09-10T21:40:00.823Z,3.93
2018-09-10T21:42:35.245Z,3.90
2018-09-10T21:45:09.983Z,3.90
2018-09-10T21:47:45.922Z,4.90
2018-09-10T21:50:21.771Z,3.70
2018-09-10T21:52:56.268Z,4.60
2018-09-10T21:55:32.263Z,4.13
2018-09-10T21:58:06.762Z,4.07
2018-09-10T22:01:00.156Z,3.60
2018-09-10T22:03:34.640Z,3.60
2018-09-10T22:06:16.432Z,3.70
2018-09-10T22:08:53.242Z,4.60
2018-09-10T22:11:29.024Z,3.73
2018-09-10T22:14:04.563Z,4.43
2018-09-10T22:16:38.890Z,4.67
2018-09-10T22:19:14.437Z,4.77
2018-09-10T22:21:49.970Z,3.47
2018-09-10T22:24:24.373Z,4.00
2018-09-10T22:27:00.481Z,4.37
2018-09-10T22:29:34.876Z,3.80
2018-09-10T22:32:10.819Z,5.10
2018-09-10T22:34:45.370Z,4.33
2018-09-10T22:37:19.839Z,4.70
2018-09-10T22:39:55.307Z,4.10
2018-09-10T22:42:29.776Z,3.50
2018-09-10T22:45:04.816Z,3.73
2018-09-10T22:47:43.107Z,4.60
2018-09-10T22:50:20.982Z,4.20
2018-09-10T22:52:55.482Z,4.20
2018-09-10T22:55:29.915Z,3.90
2018-09-10T22:58:04.591Z,3.70
2018-09-10T23:00:39.260Z,3.60
2018-09-10T23:03:13.567Z,3.10
2018-09-10T23:05:49.207Z,3.97
2018-09-10T23:08:24.943Z,4.90
2018-09-10T23:11:01.162Z,4.10
2018-09-10T23:13:37.364Z,4.00
2018-09-10T23:16:11.911Z,3.83
2018-09-10T23:18:48.731Z,4.37
2018-09-10T23:21:29.147Z,4.03
2018-09-10T23:24:03.572Z,3.97
2018-09-10T23:26:39.866Z,4.50
2018-09-10T23:29:16.550Z,3.40
2018-09-10T23:31:53.912Z,4.07
2018-09-10T23:34:28.308Z,4.57
2018-09-10T23:37:03.234Z,4.30
2018-09-10T23:39:37.894Z,4.30
2018-09-10T23:42:12.904Z,3.60
2018-09-10T23:44:49.437Z,3.60
2018-09-10T23:47:25.300Z,4.17
2018-09-10T23:49:59.441Z,3.90
2018-09-10T23:52:33.928Z,4.33
2018-09-10T23:55:08.508Z,5.27
2018-09-10T23:57:43.550Z,3.93
